createdAt,value
2018-10-21T00:00:38.480Z,6.11
2018-10-21T00:03:05.777Z,6.14
2018-10-21T00:05:32.861Z,6.19
2018-10-21T00:08:00.062Z,6.23
2018-10-21T00:10:27.241Z,5.99
2018-10-21T00:12:54.347Z,6.19
2018-10-21T00:15:21.583Z,6.21
2018-10-21T00:17:48.808Z,6.20
2018-10-21T00:20:16.160Z,6.11
2018-10-21T00:22:43.298Z,6.10
2018-10-21T00:25:10.493Z,5.99
2018-10-21T00:27:37.692Z,5.70
2018-10-21T00:30:05.228Z,5.64
2018-10-21T00:32:38.077Z,5.82
2018-10-21T00:35:05.584Z,5.86
2018-10-21T00:37:32.733Z,6.08
2018-10-21T00:39:59.939Z,6.07
2018-10-21T00:42:27.145Z,6.10
2018-10-21T00:44:54.353Z,6.25
2018-10-21T00:47:21.575Z,6.06
2018-10-21T00:49:48.744Z,6.15
2018-10-21T00:52:15.957Z,6.19
2018-10-21T00:54:43.108Z,6.23
2018-10-21T00:57:10.318Z,6.29
2018-10-21T00:59:44.348Z,6.36
2018-10-21T01:02:11.484Z,6.33
2018-10-21T01:04:38.686Z,6.42
2018-10-21T01:07:06.220Z,6.40
2018-10-21T01:09:33.381Z,6.46
2018-10-21T01:12:00.509Z,6.40
2018-10-21T01:14:27.702Z,6.42
2018-10-21T01:16:54.898Z,6.41
2018-10-21T01:19:22.105Z,6.48
2018-10-21T01:21:49.284Z,6.55
2018-10-21T01:24:16.612Z,6.50
2018-10-21T01:26:43.796Z,6.28
2018-10-21T01:29:10.932Z,6.25
2018-10-21T01:31:38.127Z,6.25
2018-10-21T01:34:05.317Z,6.21
2018-10-21T01:36:32.607Z,6.23
2018-10-21T01:38:59.671Z,6.27
2018-10-21T01:41:26.788Z,6.35
2018-10-21T01:43:53.996Z,6.42
2018-10-21T01:46:21.156Z,6.39
2018-10-21T01:48:48.328Z,6.43
2018-10-21T01:51:15.490Z,6.49
2018-10-21T01:53:42.627Z,6.44
2018-10-21T01:56:09.787Z,6.51
2018-10-21T01:58:36.944Z,6.35
2018-10-21T02:01:04.287Z,6.40
2018-10-21T02:03:31.443Z,6.42
2018-10-21T02:05:58.624Z,6.40
2018-10-21T02:08:25.804Z,6.31
2018-10-21T02:10:52.948Z,6.33
2018-10-21T02:13:20.193Z,6.27
2018-10-21T02:15:47.423Z,6.26
2018-10-21T02:18:14.727Z,6.22
2018-10-21T02:20:41.877Z,6.22
2018-10-21T02:23:09.079Z,6.18
2018-10-21T02:25:36.188Z,6.09
2018-10-21T02:28:03.358Z,6.05
2018-10-21T02:30:31.105Z,6.15
2018-10-21T02:32:59.019Z,6.14
2018-10-21T02:35:26.137Z,6.19
2018-10-21T02:37:53.909Z,6.23
2018-10-21T02:41:41.038Z,6.22
2018-10-21T02:44:15.596Z,6.27
2018-10-21T02:46:43.296Z,6.29
2018-10-21T02:49:11.284Z,6.33
2018-10-21T02:51:38.475Z,6.37
2018-10-21T02:54:05.980Z,6.35
2018-10-21T02:56:33.136Z,6.43
2018-10-21T02:59:00.344Z,6.42
2018-10-21T03:01:27.472Z,6.45
2018-10-21T03:03:54.685Z,6.32
2018-10-21T03:06:21.863Z,6.46
2018-10-21T03:08:49.012Z,6.37
2018-10-21T03:11:16.161Z,6.35
2018-10-21T03:13:43.363Z,6.32
2018-10-21T03:16:10.554Z,6.41
2018-10-21T03:18:37.757Z,6.40
2018-10-21T03:21:05.155Z,6.46
2018-10-21T03:23:32.906Z,6.44
2018-10-21T03:26:00.376Z,6.39
2018-10-21T03:28:27.533Z,6.43
2018-10-21T03:30:54.732Z,6.46
2018-10-21T03:33:21.964Z,6.42
2018-10-21T03:35:55.973Z,6.46
2018-10-21T03:38:23.156Z,6.59
2018-10-21T03:40:50.288Z,6.55
2018-10-21T03:43:17.483Z,6.61
2018-10-21T03:45:44.703Z,6.60
2018-10-21T03:48:11.881Z,6.64
2018-10-21T03:50:39.041Z,6.62
2018-10-21T03:53:06.181Z,6.64
2018-10-21T03:55:36.700Z,6.53
2018-10-21T03:58:04.561Z,6.65
2018-10-21T04:00:31.708Z,6.67
2018-10-21T04:02:58.879Z,6.67
2018-10-21T04:05:26.075Z,6.67
2018-10-21T04:07:53.300Z,6.70
2018-10-21T04:10:20.456Z,6.74
2018-10-21T04:12:47.604Z,6.76
2018-10-21T04:15:14.816Z,6.80
2018-10-21T04:17:41.996Z,6.84
2018-10-21T04:20:09.128Z,6.89
2018-10-21T04:23:08.461Z,6.85
2018-10-21T04:25:36.809Z,6.91
2018-10-21T04:28:04.500Z,6.89
2018-10-21T04:30:33.473Z,6.90
2018-10-21T04:34:05.596Z,6.91
2018-10-21T04:36:33.552Z,6.85
2018-10-21T04:40:20.472Z,6.66
2018-10-21T04:42:48.011Z,6.69
2018-10-21T04:45:16.516Z,6.50
2018-10-21T04:47:43.676Z,6.62
2018-10-21T04:50:11.488Z,6.70
2018-10-21T04:52:38.701Z,6.61
2018-10-21T04:55:07.722Z,6.68
2018-10-21T04:57:35.616Z,6.64
2018-10-21T05:00:03.157Z,6.64
2018-10-21T05:02:31.117Z,6.59
2018-10-21T05:04:58.332Z,6.56
2018-10-21T05:07:25.555Z,6.56
2018-10-21T05:09:52.835Z,6.55
2018-10-21T05:12:20.088Z,6.53
2018-10-21T05:14:47.298Z,6.21
2018-10-21T05:17:14.425Z,6.19
2018-10-21T05:19:41.639Z,6.14
2018-10-21T05:22:08.831Z,6.04
2018-10-21T05:24:36.407Z,6.04
2018-10-21T05:27:04.196Z,6.15
2018-10-21T05:29:31.575Z,6.03
2018-10-21T05:31:58.712Z,6.03
2018-10-21T05:34:25.957Z,5.90
2018-10-21T05:36:53.052Z,5.99
2018-10-21T05:39:20.217Z,5.89
2018-10-21T05:41:47.351Z,5.70
2018-10-21T05:44:14.516Z,5.77
2018-10-21T05:46:50.647Z,5.74
2018-10-21T05:49:17.724Z,5.73
2018-10-21T05:51:46.287Z,5.70
2018-10-21T05:54:14.532Z,5.74
2018-10-21T05:56:44.061Z,5.81
2018-10-21T05:59:11.489Z,5.73
2018-10-21T06:01:39.355Z,5.68
2018-10-21T06:04:07.151Z,5.71
2018-10-21T06:06:34.325Z,5.75
2018-10-21T06:09:01.476Z,5.68
2018-10-21T06:11:28.668Z,5.31
2018-10-21T06:13:55.800Z,5.30
2018-10-21T06:16:23.037Z,5.44
2018-10-21T06:18:50.044Z,5.46
2018-10-21T06:21:17.272Z,5.49
2018-10-21T06:23:44.525Z,5.49
2018-10-21T06:26:11.676Z,5.47
2018-10-21T06:28:38.821Z,5.54
2018-10-21T06:31:06.238Z,5.44
2018-10-21T06:33:33.454Z,5.54
2018-10-21T06:36:00.560Z,5.63
2018-10-21T06:38:27.704Z,5.71
2018-10-21T06:40:54.860Z,5.46
2018-10-21T06:43:22.055Z,5.56
2018-10-21T06:45:49.216Z,5.70
2018-10-21T06:48:16.452Z,5.74
2018-10-21T06:50:43.644Z,5.72
2018-10-21T06:53:10.861Z,5.47
2018-10-21T06:55:38.024Z,5.68
2018-10-21T06:58:05.388Z,5.73
2018-10-21T07:00:32.612Z,5.93
2018-10-21T07:02:59.732Z,6.15
2018-10-21T07:05:38.296Z,6.24
2018-10-21T07:08:05.572Z,6.25
2018-10-21T07:10:32.788Z,6.25
2018-10-21T07:12:59.909Z,6.20
2018-10-21T07:15:27.168Z,6.16
2018-10-21T07:17:54.306Z,6.31
2018-10-21T07:20:21.517Z,6.27
2018-10-21T07:22:48.724Z,6.29
2018-10-21T07:25:15.820Z,6.34
2018-10-21T07:27:43.019Z,6.43
2018-10-21T07:30:11.500Z,6.59
2018-10-21T07:32:39.475Z,6.81
2018-10-21T07:35:07.628Z,6.94
2018-10-21T07:37:34.832Z,7.04
2018-10-21T07:40:02.237Z,7.16
2018-10-21T07:42:29.481Z,7.13
2018-10-21T07:44:56.647Z,7.20
2018-10-21T07:47:23.757Z,7.48
2018-10-21T07:49:50.961Z,7.48
2018-10-21T07:52:18.177Z,7.66
2018-10-21T07:54:46.101Z,7.56
2018-10-21T07:57:14.016Z,7.67
2018-10-21T07:59:41.306Z,7.81
2018-10-21T08:02:08.408Z,8.11
2018-10-21T08:04:35.614Z,8.27
2018-10-21T08:07:14.228Z,8.37
2018-10-21T08:09:41.425Z,8.51
2018-10-21T08:12:08.577Z,8.74
2018-10-21T08:14:35.816Z,8.95
2018-10-21T08:17:02.952Z,9.04
2018-10-21T08:19:30.080Z,9.18
2018-10-21T08:21:57.248Z,9.23
2018-10-21T08:24:24.454Z,9.09
2018-10-21T08:26:51.602Z,9.07
2018-10-21T08:29:18.774Z,9.14
2018-10-21T08:31:45.971Z,9.13
2018-10-21T08:34:13.190Z,9.21
2018-10-21T08:36:41.414Z,9.29
2018-10-21T08:39:08.623Z,9.35
2018-10-21T08:41:35.811Z,9.50
2018-10-21T08:44:03.000Z,9.59
2018-10-21T08:46:30.222Z,9.59
2018-10-21T08:48:57.436Z,9.59
2018-10-21T08:51:24.651Z,9.73
2018-10-21T08:53:51.855Z,9.83
2018-10-21T08:56:19.110Z,9.93
2018-10-21T08:58:46.244Z,10.06
2018-10-21T09:01:13.430Z,10.12
2018-10-21T09:03:40.597Z,10.15
2018-10-21T09:06:07.755Z,10.34
2018-10-21T09:08:34.908Z,10.44
2018-10-21T09:11:02.139Z,10.46
2018-10-21T09:13:29.376Z,10.63
2018-10-21T09:15:56.555Z,10.82
2018-10-21T09:18:23.675Z,10.84
2018-10-21T09:20:50.841Z,10.93
2018-10-21T09:23:18.027Z,11.05
2018-10-21T09:25:45.176Z,11.08
2018-10-21T09:28:12.407Z,11.10
2018-10-21T09:30:39.539Z,11.09
2018-10-21T09:33:17.419Z,11.07
2018-10-21T09:35:44.606Z,10.96
2018-10-21T09:38:11.783Z,10.85
2018-10-21T09:40:39.021Z,10.79
2018-10-21T09:43:06.788Z,10.78
2018-10-21T09:45:33.962Z,10.83
2018-10-21T09:48:01.128Z,10.73
2018-10-21T09:50:28.341Z,10.86
2018-10-21T09:52:55.648Z,10.82
2018-10-21T09:55:22.876Z,10.81
2018-10-21T09:57:50.204Z,10.86
2018-10-21T10:00:23.010Z,10.78
2018-10-21T10:02:55.946Z,10.89
2018-10-21T10:05:23.505Z,11.13
2018-10-21T10:07:50.740Z,11.35
2018-10-21T10:10:17.992Z,11.72
2018-10-21T10:12:46.919Z,11.74
2018-10-21T10:15:14.105Z,11.38
2018-10-21T10:17:41.332Z,11.37
2018-10-21T10:20:09.527Z,11.61
2018-10-21T10:22:36.709Z,11.68
2018-10-21T10:25:04.755Z,11.77
2018-10-21T10:27:31.955Z,11.83
2018-10-21T10:29:59.149Z,11.61
2018-10-21T10:32:26.294Z,11.70
2018-10-21T10:34:53.458Z,11.80
2018-10-21T10:37:20.712Z,11.75
2018-10-21T10:39:47.885Z,11.82
2018-10-21T10:42:15.137Z,11.98
2018-10-21T10:44:42.232Z,12.06
2018-10-21T10:47:09.428Z,12.16
2018-10-21T10:49:36.631Z,12.19
2018-10-21T10:52:03.875Z,12.20
2018-10-21T10:54:31.076Z,12.33
2018-10-21T10:56:58.271Z,12.39
2018-10-21T10:59:25.439Z,12.29
2018-10-21T11:01:52.668Z,12.17
2018-10-21T11:04:19.877Z,12.09
2018-10-21T11:06:47.072Z,12.19
2018-10-21T11:09:14.216Z,12.21
2018-10-21T11:11:41.367Z,12.26
2018-10-21T11:14:08.649Z,12.46
2018-10-21T11:16:35.844Z,12.51
2018-10-21T11:19:03.042Z,12.52
2018-10-21T11:21:30.287Z,12.48
2018-10-21T11:23:57.464Z,12.50
2018-10-21T11:26:24.652Z,12.66
2018-10-21T11:28:51.836Z,12.77
2018-10-21T11:31:19.019Z,13.25
2018-10-21T11:33:46.277Z,13.47
2018-10-21T11:36:13.433Z,13.70
2018-10-21T11:38:40.635Z,13.77
2018-10-21T11:41:07.777Z,13.56
2018-10-21T11:43:34.920Z,13.39
2018-10-21T11:46:02.245Z,13.36
2018-10-21T11:48:29.505Z,13.56
2018-10-21T11:50:56.636Z,13.42
2018-10-21T11:53:23.797Z,13.30
2018-10-21T11:55:50.964Z,13.05
2018-10-21T11:58:18.169Z,12.79
2018-10-21T12:00:46.022Z,12.95
2018-10-21T12:03:13.208Z,13.03
2018-10-21T12:05:41.119Z,12.83
2018-10-21T12:08:08.478Z,13.70
2018-10-21T12:10:35.632Z,13.22
2018-10-21T12:13:02.859Z,12.96
2018-10-21T12:15:30.028Z,13.36
2018-10-21T12:17:57.161Z,14.05
2018-10-21T12:20:24.293Z,14.67
2018-10-21T12:22:51.534Z,13.64
2018-10-21T12:25:18.703Z,13.21
2018-10-21T12:27:45.810Z,14.14
2018-10-21T12:30:12.984Z,15.76
2018-10-21T12:32:40.179Z,15.55
2018-10-21T12:35:08.679Z,16.12
2018-10-21T12:37:35.775Z,15.91
2018-10-21T12:40:03.401Z,16.35
2018-10-21T12:42:30.540Z,17.63
2018-10-21T12:44:57.700Z,17.09
2018-10-21T12:47:24.955Z,15.62
2018-10-21T12:49:52.113Z,15.54
2018-10-21T12:52:19.305Z,15.16
2018-10-21T12:54:46.650Z,14.45
2018-10-21T12:57:13.844Z,14.72
2018-10-21T12:59:40.991Z,15.31
2018-10-21T13:02:08.200Z,15.54
2018-10-21T13:04:35.363Z,15.96
2018-10-21T13:07:02.651Z,16.00
2018-10-21T13:09:29.883Z,15.07
2018-10-21T13:11:57.078Z,14.25
2018-10-21T13:14:24.236Z,15.20
2018-10-21T13:16:51.393Z,15.78
2018-10-21T13:19:18.623Z,16.16
2018-10-21T13:21:45.739Z,17.40
2018-10-21T13:24:12.883Z,16.81
2018-10-21T13:26:40.051Z,17.13
2018-10-21T13:29:07.193Z,16.58
2018-10-21T13:31:34.500Z,16.92
2018-10-21T13:34:01.657Z,17.04
2018-10-21T13:36:28.855Z,17.79
2018-10-21T13:38:56.044Z,17.62
2018-10-21T13:41:23.214Z,18.19
2018-10-21T13:43:50.384Z,19.04
2018-10-21T13:46:17.589Z,18.41
2018-10-21T13:48:44.701Z,18.97
2018-10-21T13:51:11.878Z,19.70
2018-10-21T13:53:39.062Z,19.83
2018-10-21T13:56:06.210Z,19.83
2018-10-21T13:58:33.379Z,19.34
2018-10-21T14:01:00.651Z,18.90
2018-10-21T14:03:27.784Z,18.97
2018-10-21T14:05:54.900Z,19.06
2018-10-21T14:08:22.129Z,18.90
2018-10-21T14:10:49.319Z,19.61
2018-10-21T14:15:43.177Z,19.87
2018-10-21T14:18:10.383Z,19.74
2018-10-21T14:20:37.554Z,20.00
2018-10-21T14:23:04.757Z,20.08
2018-10-21T14:25:31.901Z,20.21
2018-10-21T14:27:59.133Z,19.58
2018-10-21T14:30:26.312Z,19.67
2018-10-21T14:32:53.410Z,19.66
2018-10-21T14:35:20.657Z,19.89
2018-10-21T14:37:48.090Z,19.18
2018-10-21T14:40:15.185Z,19.45
2018-10-21T14:42:42.431Z,19.62
2018-10-21T14:45:10.918Z,19.81
2018-10-21T14:47:38.544Z,19.04
2018-10-21T14:50:05.964Z,19.37
2018-10-21T14:52:33.160Z,19.93
2018-10-21T14:55:00.377Z,19.99
2018-10-21T14:57:27.557Z,19.85
2018-10-21T14:59:54.697Z,19.57
2018-10-21T15:02:21.866Z,19.22
2018-10-21T15:04:49.051Z,18.54
2018-10-21T15:07:16.217Z,18.36
2018-10-21T15:09:43.446Z,18.34
2018-10-21T15:12:10.607Z,17.68
2018-10-21T15:14:37.791Z,17.20
2018-10-21T15:17:05.260Z,16.94
2018-10-21T15:19:32.473Z,15.84
2018-10-21T15:21:59.715Z,15.29
2018-10-21T15:24:26.908Z,14.63
2018-10-21T15:26:54.077Z,14.74
2018-10-21T15:29:21.253Z,14.59
2018-10-21T15:31:48.417Z,14.66
2018-10-21T15:34:15.677Z,14.42
2018-10-21T15:36:42.744Z,14.18
2018-10-21T15:39:10.597Z,14.06
2018-10-21T15:41:38.154Z,14.07
2018-10-21T15:44:05.683Z,14.01
2018-10-21T15:46:32.824Z,13.92
2018-10-21T15:49:00.165Z,13.50
2018-10-21T15:51:27.450Z,13.49
2018-10-21T15:53:54.718Z,13.40
2018-10-21T15:56:21.909Z,13.33
2018-10-21T15:58:49.065Z,13.33
2018-10-21T16:01:16.249Z,13.23
2018-10-21T16:03:43.357Z,12.98
2018-10-21T16:06:10.489Z,12.92
2018-10-21T16:08:37.644Z,12.73
2018-10-21T16:11:05.087Z,12.61
2018-10-21T16:13:32.249Z,12.57
2018-10-21T16:15:59.451Z,12.40
2018-10-21T16:18:26.636Z,12.01
2018-10-21T16:20:53.888Z,11.80
2018-10-21T16:23:21.048Z,11.88
2018-10-21T16:25:48.233Z,11.80
2018-10-21T16:28:15.431Z,11.59
2018-10-21T16:30:42.639Z,10.68
2018-10-21T16:33:09.832Z,10.94
2018-10-21T16:35:36.988Z,10.97
2018-10-21T16:38:04.128Z,11.11
2018-10-21T16:40:31.311Z,11.24
2018-10-21T16:42:58.509Z,11.10
2018-10-21T16:45:25.708Z,10.95
2018-10-21T16:47:52.974Z,11.00
2018-10-21T16:50:20.076Z,10.46
2018-10-21T16:52:47.338Z,10.30
2018-10-21T16:55:15.267Z,10.25
2018-10-21T16:57:42.453Z,10.12
2018-10-21T17:00:14.597Z,9.64
2018-10-21T17:02:42.210Z,9.42
2018-10-21T17:05:09.741Z,9.22
2018-10-21T17:07:36.832Z,9.39
2018-10-21T17:10:04.630Z,9.45
2018-10-21T17:12:31.433Z,9.50
2018-10-21T17:14:58.600Z,9.22
2018-10-21T17:17:25.737Z,9.18
2018-10-21T17:19:52.860Z,9.27
2018-10-21T17:22:20.014Z,9.15
2018-10-21T17:24:47.641Z,8.91
2018-10-21T17:27:14.864Z,8.02
2018-10-21T17:29:41.994Z,8.16
2018-10-21T17:32:09.174Z,8.45
2018-10-21T17:34:36.350Z,8.64
2018-10-21T17:37:03.842Z,8.59
2018-10-21T17:39:31.023Z,8.62
2018-10-21T17:41:58.184Z,8.44
2018-10-21T17:44:25.423Z,8.26
2018-10-21T17:46:52.579Z,8.40
2018-10-21T17:49:19.714Z,7.74
2018-10-21T17:51:46.868Z,7.94
2018-10-21T17:54:14.043Z,7.90
2018-10-21T17:56:46.913Z,7.90
2018-10-21T17:59:14.077Z,7.83
2018-10-21T18:01:41.308Z,7.85
2018-10-21T18:04:08.534Z,7.99
2018-10-21T18:06:35.795Z,8.02
2018-10-21T18:09:03.101Z,8.08
2018-10-21T18:11:30.284Z,7.90
2018-10-21T18:13:57.503Z,7.04
2018-10-21T18:16:24.621Z,7.33
2018-10-21T18:18:51.936Z,7.51
2018-10-21T18:21:19.134Z,7.43
2018-10-21T18:23:46.359Z,7.38
2018-10-21T18:26:13.854Z,7.18
2018-10-21T18:28:40.976Z,7.17
2018-10-21T18:31:08.175Z,7.08
2018-10-21T18:33:35.287Z,7.20
2018-10-21T18:36:03.380Z,6.98
2018-10-21T18:38:30.596Z,6.63
2018-10-21T18:40:57.933Z,6.33
2018-10-21T18:43:25.173Z,6.63
2018-10-21T18:45:52.370Z,6.63
2018-10-21T18:48:19.539Z,6.61
2018-10-21T18:50:46.745Z,6.42
2018-10-21T18:53:13.966Z,6.46
2018-10-21T18:55:41.191Z,6.32
2018-10-21T18:58:08.380Z,6.36
2018-10-21T19:00:35.540Z,6.57
2018-10-21T19:03:02.720Z,6.59
2018-10-21T19:05:29.916Z,6.42
2018-10-21T19:07:57.110Z,6.52
2018-10-21T19:10:24.336Z,6.47
2018-10-21T19:13:00.051Z,6.29
2018-10-21T19:15:18.622Z,6.08
2018-10-21T19:17:45.837Z,5.85
2018-10-21T19:20:15.141Z,5.94
2018-10-21T19:22:42.344Z,5.87
2018-10-21T19:25:12.241Z,5.68
2018-10-21T19:27:39.405Z,5.97
2018-10-21T19:30:07.713Z,5.89
2018-10-21T19:32:34.896Z,5.86
2018-10-21T19:35:02.193Z,5.92
2018-10-21T19:37:30.233Z,6.00
2018-10-21T19:39:57.436Z,5.79
2018-10-21T19:42:24.660Z,5.59
2018-10-21T19:44:51.840Z,5.63
2018-10-21T19:47:19.045Z,5.59
2018-10-21T19:49:46.258Z,5.59
2018-10-21T19:52:13.440Z,5.58
2018-10-21T19:54:40.543Z,5.58
2018-10-21T19:57:07.712Z,5.59
2018-10-21T19:59:34.888Z,5.55
2018-10-21T20:02:02.051Z,5.19
2018-10-21T20:04:29.218Z,5.24
2018-10-21T20:06:56.732Z,5.05
2018-10-21T20:09:23.903Z,5.15
2018-10-21T20:11:51.032Z,5.09
2018-10-21T20:14:18.165Z,4.94
2018-10-21T20:16:45.377Z,4.95
2018-10-21T20:19:12.688Z,4.84
2018-10-21T20:21:39.797Z,4.65
2018-10-21T20:24:06.992Z,3.53
2018-10-21T20:26:34.205Z,4.58
2018-10-21T20:29:01.329Z,4.60
2018-10-21T20:31:28.604Z,4.65
2018-10-21T20:33:55.758Z,4.56
2018-10-21T20:36:22.951Z,4.49
2018-10-21T20:38:50.073Z,4.53
2018-10-21T20:41:17.296Z,4.42
2018-10-21T20:43:44.462Z,4.48
2018-10-21T20:46:11.704Z,4.06
2018-10-21T20:48:38.859Z,3.97
2018-10-21T20:51:06.277Z,3.97
2018-10-21T20:53:33.259Z,4.08
2018-10-21T20:56:00.562Z,4.14
2018-10-21T20:58:27.821Z,4.16
2018-10-21T21:00:54.890Z,4.16
2018-10-21T21:03:22.042Z,3.99
2018-10-21T21:05:49.224Z,4.15
2018-10-21T21:08:16.477Z,4.00
2018-10-21T21:10:43.561Z,3.91
2018-10-21T21:13:10.787Z,3.75
2018-10-21T21:15:37.932Z,3.79
2018-10-21T21:18:05.160Z,3.94
2018-10-21T21:20:32.349Z,3.76
2018-10-21T21:22:59.481Z,3.72
2018-10-21T21:25:26.613Z,3.75
2018-10-21T21:27:53.871Z,3.47
2018-10-21T21:30:21.153Z,3.73
2018-10-21T21:32:48.194Z,3.52
2018-10-21T21:35:15.377Z,3.27
2018-10-21T21:37:42.612Z,3.53
2018-10-21T21:40:09.986Z,3.37
2018-10-21T21:42:37.701Z,3.36
2018-10-21T21:45:05.182Z,3.46
2018-10-21T21:47:32.373Z,3.55
2018-10-21T21:49:59.506Z,3.65
2018-10-21T21:52:26.668Z,3.44
2018-10-21T21:54:53.859Z,3.41
2018-10-21T21:57:21.134Z,3.05
2018-10-21T21:59:48.249Z,3.21
2018-10-21T22:02:15.475Z,3.24
2018-10-21T22:04:42.663Z,3.27
2018-10-21T22:07:09.813Z,2.91
2018-10-21T22:09:37.001Z,3.03
2018-10-21T22:12:04.276Z,2.77
2018-10-21T22:14:31.377Z,3.00
2018-10-21T22:16:58.517Z,3.16
2018-10-21T22:19:25.673Z,3.09
2018-10-21T22:21:52.855Z,2.91
2018-10-21T22:24:20.008Z,3.15
2018-10-21T22:26:47.124Z,2.72
2018-10-21T22:29:14.229Z,2.89
2018-10-21T22:31:41.408Z,2.77
2018-10-21T22:34:08.582Z,2.84
2018-10-21T22:36:35.680Z,2.88
2018-10-21T22:39:03.353Z,2.94
2018-10-21T22:41:30.544Z,2.79
2018-10-21T22:43:57.715Z,2.92
2018-10-21T22:46:24.857Z,2.82
2018-10-21T22:48:52.084Z,2.91
2018-10-21T22:51:19.275Z,2.60
2018-10-21T22:53:46.456Z,2.62
2018-10-21T22:56:13.625Z,2.53
2018-10-21T22:58:40.730Z,2.61
2018-10-21T23:01:08.176Z,2.72
2018-10-21T23:03:35.296Z,2.81
2018-10-21T23:06:02.498Z,2.56
2018-10-21T23:08:29.675Z,2.55
2018-10-21T23:10:56.849Z,2.35
2018-10-21T23:13:24.012Z,2.43
2018-10-21T23:15:51.183Z,2.38
2018-10-21T23:18:18.501Z,2.57
2018-10-21T23:20:45.639Z,2.56
2018-10-21T23:23:12.807Z,2.19
2018-10-21T23:25:39.971Z,2.35
2018-10-21T23:28:07.155Z,2.32
2018-10-21T23:30:34.353Z,2.32
2018-10-21T23:33:01.518Z,2.40
2018-10-21T23:35:28.723Z,1.90
2018-10-21T23:37:55.856Z,2.15
2018-10-21T23:40:22.965Z,2.00
2018-10-21T23:42:50.116Z,2.10
2018-10-21T23:45:17.295Z,1.88
2018-10-21T23:47:44.424Z,1.83
2018-10-21T23:50:11.525Z,2.17
2018-10-21T23:52:38.655Z,2.06
2018-10-21T23:55:05.840Z,2.18
2018-10-21T23:57:32.976Z,2.23
